Time;durP1;ratioP1;P1;durP2;ratioP2;P2;SDS_P1;SDS_P2;PMS_P1;PMS_P2;Temp;Humidity;BMP_temperature;BMP_pressure;BME280_temperature;BME280_humidity;BME280_pressure;Samples;Min_cycle;Max_cycle;Signal;HPM_P1;HPM_P2
2022/08/08 00:01:08;;;;;;;3.80;1.90;;;;;;;16.18;56.58;98478.71;106274;1271;24264;-82
2022/08/08 00:03:54;;;;;;;4.30;2.30;;;;;;;16.27;56.16;98472.27;106431;1271;25346;-81
2022/08/08 00:06:39;;;;;;;2.90;2.00;;;;;;;16.30;56.10;98468.13;106207;1271;25394;-83
2022/08/08 00:09:33;;;;;;;4.70;2.10;;;;;;;16.37;55.81;98463.68;106262;1271;24212;-81
2022/08/08 00:12:08;;;;;;;3.00;2.10;;;;;;;16.28;55.58;98459.86;106424;1271;24114;-81
2022/08/08 00:15:00;;;;;;;3.70;2.00;;;;;;;16.22;55.62;98457.89;106407;1271;23973;-81
2022/08/08 00:17:54;;;;;;;5.10;2.50;;;;;;;16.19;55.87;98457.85;106337;1271;24412;-81
2022/08/08 00:20:42;;;;;;;3.70;2.20;;;;;;;16.21;56.41;98457.40;106331;1271;22525;-81
2022/08/08 00:23:27;;;;;;;5.50;1.80;;;;;;;16.31;56.00;98454.09;106334;1271;25268;-82
2022/08/08 00:26:22;;;;;;;2.10;1.90;;;;;;;16.38;56.01;98459.14;106398;1271;22781;-81
2022/08/08 00:29:03;;;;;;;3.50;2.00;;;;;;;16.56;57.27;98464.95;106317;1271;22628;-81
2022/08/08 00:31:47;;;;;;;2.30;1.80;;;;;;;16.68;55.96;98461.75;106244;1271;23504;-80
2022/08/08 00:35:10;;;;;;;4.00;2.10;;;;;;;16.58;55.78;98461.15;106255;1271;23357;-81
2022/08/08 00:38:07;;;;;;;3.70;2.30;;;;;;;16.52;56.00;98455.52;106318;1271;25338;-81
2022/08/08 00:41:46;;;;;;;7.70;2.70;;;;;;;16.49;56.01;98455.65;106253;1271;25277;-81
2022/08/08 00:44:43;;;;;;;6.10;2.50;;;;;;;16.42;55.88;98458.27;105927;1277;22608;-81
2022/08/08 00:47:38;;;;;;;3.00;2.40;;;;;;;16.35;55.49;98462.89;105888;1277;22646;-81
2022/08/08 00:50:26;;;;;;;5.20;2.20;;;;;;;16.34;56.64;98460.74;105882;1277;22698;-81
2022/08/08 00:53:03;;;;;;;5.30;2.40;;;;;;;16.46;56.31;98457.61;105842;1277;22719;-81
2022/08/08 00:56:13;;;;;;;5.90;2.00;;;;;;;16.47;55.87;98457.90;105886;1277;24434;-80
2022/08/08 00:58:46;;;;;;;3.70;2.60;;;;;;;16.30;55.70;98457.31;105892;1277;23335;-80
2022/08/08 01:01:48;;;;;;;3.30;2.10;;;;;;;16.14;55.96;98456.99;105984;1277;22681;-80
2022/08/08 01:05:17;;;;;;;3.10;2.30;;;;;;;16.11;56.71;98449.80;105577;1277;25587;-80
2022/08/08 01:08:34;;;;;;;3.30;2.30;;;;;;;16.18;56.19;98455.80;105895;1275;22540;-80
2022/08/08 01:11:18;;;;;;;3.00;2.00;;;;;;;16.09;56.69;98455.77;105936;1277;26471;-80
2022/08/08 01:14:18;;;;;;;5.50;2.60;;;;;;;16.09;56.42;98456.09;105869;1277;23504;-80
2022/08/08 01:17:18;;;;;;;2.60;2.00;;;;;;;16.17;57.26;98456.35;105905;1277;22517;-80
2022/08/08 01:20:13;;;;;;;6.20;2.40;;;;;;;16.16;57.06;98456.48;106088;1271;23876;-80
2022/08/08 01:23:24;;;;;;;4.50;2.20;;;;;;;16.23;57.25;98456.31;106228;1271;24402;-80
2022/08/08 01:26:24;;;;;;;3.60;1.90;;;;;;;16.51;57.15;98452.84;106000;1277;25322;-80
2022/08/08 01:29:22;;;;;;;4.50;2.30;;;;;;;16.49;56.73;98452.99;105706;1277;22876;-81
2022/08/08 01:32:18;;;;;;;2.90;1.80;;;;;;;16.47;56.94;98454.15;105987;1277;22560;-81
2022/08/08 01:35:13;;;;;;;3.40;2.10;;;;;;;16.49;57.38;98455.33;106053;1277;25297;-81
2022/08/08 01:38:16;;;;;;;4.10;2.10;;;;;;;16.63;57.46;98454.05;105899;1277;22764;-80
2022/08/08 01:41:06;;;;;;;3.50;2.30;;;;;;;16.68;57.08;98454.90;105993;1277;23940;-80
2022/08/08 01:43:48;;;;;;;5.20;2.50;;;;;;;16.66;56.58;98452.92;105943;1277;25417;-80
2022/08/08 01:46:45;;;;;;;3.40;2.10;;;;;;;16.47;56.62;98457.71;106038;1277;25422;-81
2022/08/08 01:49:43;;;;;;;4.20;2.50;;;;;;;16.45;57.47;98454.61;105724;1277;22681;-80
2022/08/08 01:52:31;;;;;;;3.90;2.10;;;;;;;16.49;56.78;98454.84;106022;1277;25473;-80
2022/08/08 01:55:41;;;;;;;5.00;2.30;;;;;;;16.29;57.29;98456.42;105919;1277;25364;-82
2022/08/08 01:58:40;;;;;;;14.10;2.70;;;;;;;16.23;56.84;98453.77;106197;1273;24416;-81
2022/08/08 02:02:01;;;;;;;3.70;2.30;;;;;;;16.03;56.97;98459.72;106351;1274;26674;-81
2022/08/08 02:05:04;;;;;;;4.20;2.10;;;;;;;15.98;57.13;98461.26;106174;1274;22608;-81
2022/08/08 02:08:04;;;;;;;4.00;2.40;;;;;;;16.04;57.71;98461.86;106313;1274;22854;-81
2022/08/08 02:11:05;;;;;;;3.50;2.00;;;;;;;16.23;58.36;98457.11;106200;1274;22544;-81
2022/08/08 02:14:03;;;;;;;3.10;2.40;;;;;;;16.60;58.08;98457.48;106338;1274;25198;-81
2022/08/08 02:17:06;;;;;;;2.70;2.20;;;;;;;16.57;56.90;98457.08;106155;1274;22546;-79
2022/08/08 02:19:56;;;;;;;5.70;2.60;;;;;;;16.41;57.33;98456.13;106065;1274;22619;-81
2022/08/08 02:22:52;;;;;;;3.10;2.20;;;;;;;16.47;57.76;98453.91;106224;1274;25316;-80
2022/08/08 02:25:38;;;;;;;3.20;2.20;;;;;;;16.60;57.86;98456.08;106085;1274;22562;-80
2022/08/08 02:28:25;;;;;;;2.70;2.20;;;;;;;16.69;57.58;98454.45;106144;1273;23218;-80
2022/08/08 02:31:06;;;;;;;3.30;2.30;;;;;;;16.58;57.08;98453.13;106330;1274;26700;-81
2022/08/08 02:34:15;;;;;;;4.30;2.50;;;;;;;16.37;57.13;98458.69;106251;1274;25333;-80
2022/08/08 02:37:15;;;;;;;3.90;2.50;;;;;;;16.31;58.46;98459.40;106298;1271;22709;-80
2022/08/08 02:40:27;;;;;;;5.80;2.40;;;;;;;16.41;57.88;98461.95;106195;1271;25451;-80
2022/08/08 02:43:39;;;;;;;3.90;2.20;;;;;;;16.40;57.91;98465.59;106255;1271;22525;-80
2022/08/08 02:46:37;;;;;;;7.70;2.50;;;;;;;16.49;58.00;98463.27;106220;1271;23315;-80
2022/08/08 02:49:55;;;;;;;4.70;2.30;;;;;;;16.51;58.07;98462.73;106265;1271;22537;-79
2022/08/08 02:52:47;;;;;;;4.90;2.60;;;;;;;16.53;57.51;98458.14;105956;1277;23946;-81
2022/08/08 02:55:34;;;;;;;5.40;2.60;;;;;;;16.51;57.68;98450.85;105984;1275;22884;-81
2022/08/08 02:58:29;;;;;;;3.10;2.20;;;;;;;16.43;57.43;98448.70;105935;1277;25369;-80
2022/08/08 03:01:32;;;;;;;3.20;2.10;;;;;;;16.36;57.57;98446.48;105902;1277;25410;-81
2022/08/08 03:04:37;;;;;;;5.20;2.70;;;;;;;16.38;57.78;98450.72;105961;1277;22531;-80
2022/08/08 03:07:46;;;;;;;6.20;2.30;;;;;;;16.28;57.69;98452.35;105397;1283;23455;-81
2022/08/08 03:10:59;;;;;;;6.10;2.40;;;;;;;16.32;58.05;98454.23;105700;1281;24163;-80
2022/08/08 03:13:39;;;;;;;5.80;2.30;;;;;;;16.33;57.82;98462.44;105401;1281;22724;-81
2022/08/08 03:16:44;;;;;;;5.10;2.10;;;;;;;16.41;57.55;98460.57;105623;1281;22864;-80
2022/08/08 03:19:40;;;;;;;4.50;2.20;;;;;;;16.32;57.09;98464.34;105560;1281;22603;-80
2022/08/08 03:22:20;;;;;;;2.70;2.10;;;;;;;16.17;57.42;98465.59;105586;1283;22773;-82
2022/08/08 03:25:09;;;;;;;5.70;2.20;;;;;;;16.11;57.45;98469.15;105771;1277;22547;-82
2022/08/08 03:27:56;;;;;;;5.30;3.10;;;;;;;16.06;57.85;98471.36;105745;1277;23510;-84
2022/08/08 03:30:26;;;;;;;5.80;2.20;;;;;;;16.11;58.17;98473.18;105982;1277;25325;-81
2022/08/08 03:36:02;;;;;;;4.70;2.60;;;;;;;16.39;58.47;98473.25;105997;1277;23339;-81
2022/08/08 03:38:31;;;;;;;5.40;3.40;;;;;;;16.39;57.68;98473.46;105945;1277;22691;-81
2022/08/08 03:41:20;;;;;;;3.80;2.60;;;;;;;16.16;57.57;98473.66;106037;1277;22547;-81
2022/08/08 03:44:08;;;;;;;2.90;2.40;;;;;;;16.10;57.69;98475.80;106003;1271;25476;-82
2022/08/08 03:46:48;;;;;;;5.30;2.90;;;;;;;16.08;57.99;98476.87;106249;1271;23950;-81
2022/08/08 03:49:25;;;;;;;4.30;2.70;;;;;;;16.05;57.89;98472.31;106251;1271;25229;-81
2022/08/08 03:52:14;;;;;;;4.90;2.30;;;;;;;16.09;58.63;98472.69;106215;1271;25288;-80
2022/08/08 03:54:45;;;;;;;11.30;2.90;;;;;;;16.13;57.93;98475.61;105970;1271;25539;-80
2022/08/08 03:57:34;;;;;;;2.90;2.20;;;;;;;16.09;58.10;98479.01;105976;1270;25596;-79
2022/08/08 04:00:28;;;;;;;6.80;2.80;;;;;;;16.09;58.09;98479.92;106260;1271;22852;-80
2022/08/08 04:03:06;;;;;;;7.80;2.70;;;;;;;16.07;58.33;98481.08;106065;1271;25272;-81
2022/08/08 04:05:39;;;;;;;4.40;2.40;;;;;;;16.10;58.66;98488.98;106418;1271;24357;-82
2022/08/08 04:08:19;;;;;;;4.60;2.60;;;;;;;16.25;58.38;98494.19;106280;1270;25476;-81
2022/08/08 04:11:08;;;;;;;5.00;2.60;;;;;;;16.31;59.23;98501.25;106294;1271;22547;-81
2022/08/08 04:13:44;;;;;;;4.50;2.30;;;;;;;16.47;58.56;98498.77;106385;1271;26611;-82
2022/08/08 04:16:33;;;;;;;4.20;2.60;;;;;;;16.47;58.37;98500.55;106244;1271;25295;-80
2022/08/08 04:19:08;;;;;;;5.80;2.10;;;;;;;16.47;58.24;98507.05;106169;1271;22598;-81
2022/08/08 04:21:52;;;;;;;5.20;2.40;;;;;;;16.49;58.45;98508.55;106259;1271;25473;-81
2022/08/08 04:24:22;;;;;;;5.00;2.30;;;;;;;16.54;58.43;98503.36;106469;1271;25309;-80
2022/08/08 04:26:58;;;;;;;5.30;3.00;;;;;;;16.44;58.21;98504.59;106287;1271;23926;-81
2022/08/08 04:29:29;;;;;;;5.90;2.40;;;;;;;16.35;58.26;98509.91;106252;1271;22695;-82
2022/08/08 04:32:05;;;;;;;5.30;2.30;;;;;;;16.22;58.52;98511.98;106027;1271;22614;-80
2022/08/08 04:34:34;;;;;;;6.80;2.70;;;;;;;16.28;58.79;98512.64;106350;1271;24351;-81
2022/08/08 04:37:24;;;;;;;4.90;2.20;;;;;;;16.29;58.86;98515.39;106390;1270;22693;-82
2022/08/08 04:40:00;;;;;;;5.70;2.50;;;;;;;16.40;58.81;98514.13;106075;1271;25373;-81
2022/08/08 04:42:36;;;;;;;7.40;2.30;;;;;;;16.48;58.71;98513.16;106263;1272;25298;-81
2022/08/08 04:45:26;;;;;;;4.00;2.60;;;;;;;16.57;59.28;98514.91;106212;1271;22561;-82
2022/08/08 04:47:58;;;;;;;5.20;2.70;;;;;;;16.72;59.26;98507.08;106323;1273;22552;-82
2022/08/08 04:50:30;;;;;;;4.90;2.40;;;;;;;16.81;58.78;98509.42;106376;1271;22537;-79
2022/08/08 04:53:12;;;;;;;6.40;2.90;;;;;;;16.94;58.96;98505.70;106311;1271;25325;-81
2022/08/08 04:56:00;;;;;;;6.40;3.20;;;;;;;16.96;58.76;98509.55;106275;1271;22731;-81
2022/08/08 04:58:32;;;;;;;5.80;2.90;;;;;;;17.04;59.40;98512.25;106411;1271;23278;-82
2022/08/08 05:01:01;;;;;;;5.50;3.10;;;;;;;17.31;59.21;98512.08;106342;1271;25231;-80
2022/08/08 05:03:39;;;;;;;4.60;2.50;;;;;;;17.55;58.71;98509.12;106319;1271;25193;-81
2022/08/08 05:06:28;;;;;;;5.60;2.60;;;;;;;17.66;58.54;98514.41;106249;1271;22549;-81
2022/08/08 05:08:56;;;;;;;4.30;2.60;;;;;;;17.57;58.41;98506.96;106211;1274;22719;-80
2022/08/08 05:11:33;;;;;;;4.00;2.70;;;;;;;17.52;58.17;98511.83;106343;1271;25341;-80
2022/08/08 05:14:10;;;;;;;6.60;2.40;;;;;;;17.50;58.65;98511.14;106076;1271;25315;-80
2022/08/08 05:16:40;;;;;;;2.80;2.20;;;;;;;17.43;58.08;98512.58;106016;1271;25350;-81
2022/08/08 05:19:21;;;;;;;4.50;2.40;;;;;;;17.27;58.27;98515.91;105973;1271;22650;-80
2022/08/08 05:22:10;;;;;;;3.60;2.20;;;;;;;17.31;58.70;98522.42;105950;1271;22607;-81
2022/08/08 05:24:41;;;;;;;3.70;2.20;;;;;;;17.40;58.50;98518.22;106021;1271;22610;-81
2022/08/08 05:27:15;;;;;;;6.40;2.70;;;;;;;17.42;58.06;98519.84;106256;1271;24279;-82
2022/08/08 05:29:44;;;;;;;3.20;2.00;;;;;;;17.40;58.33;98519.69;106282;1274;22567;-82
2022/08/08 05:32:22;;;;;;;7.10;2.90;;;;;;;17.46;58.03;98521.06;106233;1271;22749;-81
2022/08/08 05:34:58;;;;;;;5.90;2.20;;;;;;;17.45;57.92;98521.27;106258;1271;22603;-81
2022/08/08 05:37:38;;;;;;;5.90;2.80;;;;;;;17.43;58.59;98519.79;106322;1271;22542;-81
2022/08/08 05:40:23;;;;;;;6.20;2.60;;;;;;;17.64;58.19;98521.09;106384;1271;23373;-81
2022/08/08 05:43:05;;;;;;;5.50;2.40;;;;;;;17.75;58.34;98515.84;106328;1268;25225;-82
2022/08/08 05:45:58;;;;;;;4.90;2.40;;;;;;;17.79;57.73;98522.30;106017;1271;22634;-80
2022/08/08 05:48:33;;;;;;;7.30;2.70;;;;;;;17.83;57.99;98523.73;106009;1271;25526;-81
2022/08/08 05:51:05;;;;;;;7.70;2.50;;;;;;;17.94;57.60;98522.59;106056;1271;22604;-82
2022/08/08 05:53:44;;;;;;;6.00;2.30;;;;;;;18.10;57.67;98520.52;106264;1271;22820;-81
2022/08/08 05:56:37;;;;;;;4.80;2.00;;;;;;;18.17;57.20;98522.58;106474;1271;25320;-80
2022/08/08 05:59:23;;;;;;;2.40;1.90;;;;;;;18.21;57.28;98528.94;106446;1271;22600;-80
2022/08/08 06:05:15;;;;;;;4.60;2.40;;;;;;;18.43;57.05;98531.40;106341;1274;22648;-80
2022/08/08 06:08:08;;;;;;;4.00;2.40;;;;;;;18.49;56.51;98533.19;106407;1271;25299;-81
2022/08/08 06:10:59;;;;;;;3.10;1.90;;;;;;;18.55;56.41;98538.14;106401;1271;25420;-81
2022/08/08 06:13:30;;;;;;;4.40;2.00;;;;;;;18.62;55.91;98544.78;106462;1271;22831;-81
2022/08/08 06:16:16;;;;;;;4.80;2.80;;;;;;;18.69;55.65;98545.41;106385;1271;22800;-81
2022/08/08 06:19:24;;;;;;;3.80;2.50;;;;;;;18.74;55.92;98549.79;106096;1271;25306;-82
2022/08/08 06:21:55;;;;;;;13.10;2.30;;;;;;;18.71;55.06;98547.11;106394;1271;25242;-81
2022/08/08 06:24:33;;;;;;;6.00;2.10;;;;;;;18.74;55.59;98548.89;106316;1271;25270;-81
2022/08/08 06:27:08;;;;;;;4.50;2.00;;;;;;;18.82;55.25;98551.52;106335;1271;24360;-80
2022/08/08 06:29:53;;;;;;;4.40;2.00;;;;;;;18.86;54.74;98552.98;106142;1271;22534;-80
2022/08/08 06:32:50;;;;;;;6.20;1.70;;;;;;;18.82;53.81;98556.21;106007;1271;22693;-81
2022/08/08 06:35:23;;;;;;;5.00;2.20;;;;;;;18.84;54.22;98553.39;106283;1271;22556;-81
2022/08/08 06:38:18;;;;;;;6.60;1.90;;;;;;;18.93;54.12;98546.29;105919;1271;22893;-85
2022/08/08 06:40:51;;;;;;;7.20;2.00;;;;;;;19.03;53.71;98550.76;106129;1271;22646;-82
2022/08/08 06:43:28;;;;;;;7.40;2.30;;;;;;;19.08;53.29;98554.17;106080;1271;22692;-80
2022/08/08 06:46:17;;;;;;;4.50;2.20;;;;;;;19.12;53.12;98554.63;106207;1271;25457;-81
2022/08/08 06:48:53;;;;;;;5.40;2.40;;;;;;;19.17;53.27;98556.82;106207;1271;22685;-81
2022/08/08 06:51:22;;;;;;;6.90;2.10;;;;;;;19.25;53.01;98558.33;106149;1271;24198;-81
2022/08/08 06:54:00;;;;;;;6.30;2.10;;;;;;;19.21;52.38;98554.08;106069;1271;25461;-79
2022/08/08 06:56:34;;;;;;;8.60;2.60;;;;;;;19.17;52.34;98558.55;105927;1271;23956;-80
2022/08/08 06:59:04;;;;;;;7.20;2.20;;;;;;;19.16;52.51;98557.25;106117;1271;22764;-80
2022/08/08 07:01:45;;;;;;;4.40;2.10;;;;;;;19.21;52.60;98556.90;106108;1271;22682;-80
2022/08/08 07:04:53;;;;;;;3.30;2.00;;;;;;;19.33;52.87;98559.16;106080;1271;25420;-83
2022/08/08 07:08:03;;;;;;;2.70;1.90;;;;;;;19.56;52.41;98564.11;106063;1270;24271;-81
2022/08/08 07:10:39;;;;;;;4.60;2.20;;;;;;;19.67;52.01;98565.58;106543;1277;24037;-81
2022/08/08 07:13:17;;;;;;;6.10;1.90;;;;;;;19.71;51.82;98561.75;106194;1277;25233;-81
2022/08/08 07:16:02;;;;;;;6.00;2.40;;;;;;;19.79;51.84;98559.48;106296;1276;23930;-81
2022/08/08 07:18:59;;;;;;;4.70;2.30;;;;;;;19.86;51.58;98562.28;106182;1277;22566;-82
2022/08/08 07:21:41;;;;;;;6.60;2.30;;;;;;;19.87;51.03;98558.62;106157;1277;22694;-82
2022/08/08 07:24:29;;;;;;;5.90;2.20;;;;;;;19.90;51.18;98565.38;106201;1277;22553;-83
2022/08/08 07:27:05;;;;;;;4.30;2.20;;;;;;;20.04;51.18;98572.13;106232;1277;22535;-81
2022/08/08 07:29:39;;;;;;;6.20;2.30;;;;;;;20.14;50.96;98572.42;106263;1277;22891;-81
2022/08/08 07:32:27;;;;;;;5.80;2.20;;;;;;;20.26;50.73;98573.86;106266;1277;22614;-82
2022/08/08 07:34:58;;;;;;;5.50;2.30;;;;;;;20.32;50.77;98575.91;106010;1277;22526;-82
2022/08/08 07:37:36;;;;;;;6.00;2.20;;;;;;;20.32;49.92;98575.29;106272;1277;25172;-82
2022/08/08 07:40:31;;;;;;;4.40;2.10;;;;;;;20.25;50.38;98575.02;106198;1277;22785;-82
2022/08/08 07:43:04;;;;;;;5.40;2.20;;;;;;;20.24;50.19;98573.96;106198;1277;25513;-81
2022/08/08 07:45:41;;;;;;;10.00;2.40;;;;;;;20.19;49.65;98573.59;106134;1277;22647;-81
2022/08/08 07:48:29;;;;;;;5.50;2.20;;;;;;;20.14;49.54;98573.50;106552;1271;25291;-82
2022/08/08 07:50:59;;;;;;;4.50;1.80;;;;;;;20.11;49.75;98571.09;106630;1271;24352;-82
2022/08/08 07:53:43;;;;;;;5.40;1.80;;;;;;;20.24;49.93;98576.15;106520;1271;25312;-82
2022/08/08 07:56:38;;;;;;;6.40;2.00;;;;;;;20.36;49.98;98576.52;106191;1271;26574;-81
2022/08/08 07:59:13;;;;;;;4.40;1.80;;;;;;;20.43;49.36;98572.55;106939;1271;25570;-81
2022/08/08 08:01:59;;;;;;;6.30;1.90;;;;;;;20.51;49.44;98579.44;106676;1271;22547;-81
2022/08/08 08:04:54;;;;;;;7.30;2.50;;;;;;;20.66;49.55;98582.55;106690;1271;24282;-82
2022/08/08 08:07:25;;;;;;;5.80;2.10;;;;;;;20.76;49.41;98585.41;106629;1271;24003;-84
2022/08/08 08:10:09;;;;;;;5.50;2.20;;;;;;;20.85;49.02;98584.56;106714;1271;23913;-81
2022/08/08 08:12:50;;;;;;;4.00;1.90;;;;;;;20.98;49.10;98582.62;106510;1271;22522;-81
2022/08/08 08:15:25;;;;;;;7.00;2.40;;;;;;;21.07;48.88;98585.99;106697;1271;22521;-80
2022/08/08 08:18:02;;;;;;;4.10;2.10;;;;;;;21.14;48.34;98589.77;106616;1271;22745;-82
2022/08/08 08:20:33;;;;;;;4.50;2.20;;;;;;;21.21;48.37;98590.84;106646;1274;22704;-81
2022/08/08 08:23:03;;;;;;;4.60;2.00;;;;;;;21.33;48.09;98592.33;106725;1271;24259;-81
2022/08/08 08:25:33;;;;;;;7.00;2.10;;;;;;;21.48;48.17;98592.33;106494;1271;25308;-81
2022/08/08 08:28:14;;;;;;;4.50;2.30;;;;;;;21.56;47.94;98586.65;106555;1271;25425;-81
2022/08/08 08:30:49;;;;;;;7.20;2.10;;;;;;;21.65;47.89;98595.63;106474;1271;22576;-81
2022/08/08 08:33:17;;;;;;;8.30;2.30;;;;;;;21.72;47.54;98598.07;106575;1271;25486;-81
2022/08/08 08:35:48;;;;;;;5.70;2.10;;;;;;;21.81;47.09;98598.74;106700;1271;25391;-85
2022/08/08 08:38:38;;;;;;;10.40;2.10;;;;;;;21.91;46.55;98594.69;106700;1271;25376;-84
2022/08/08 08:41:20;;;;;;;4.20;2.00;;;;;;;21.91;46.73;98598.27;106670;1271;22858;-84
2022/08/08 08:43:52;;;;;;;4.60;1.80;;;;;;;22.01;47.12;98599.77;106775;1271;22715;-84
2022/08/08 08:46:41;;;;;;;5.40;2.20;;;;;;;22.17;46.88;98595.98;106735;1271;22713;-82
2022/08/08 08:49:18;;;;;;;4.60;2.10;;;;;;;22.21;46.43;98598.67;106742;1271;23439;-84
2022/08/08 08:51:48;;;;;;;4.60;2.10;;;;;;;22.29;46.27;98601.44;106712;1271;22543;-84
2022/08/08 08:54:24;;;;;;;4.60;2.10;;;;;;;22.42;46.33;98597.79;106479;1271;25396;-84
2022/08/08 08:56:54;;;;;;;5.10;2.40;;;;;;;22.61;46.32;98598.58;106525;1274;24485;-87
2022/08/08 08:59:27;;;;;;;7.20;2.00;;;;;;;22.73;45.38;98603.52;106589;1271;24357;-87
2022/08/08 09:02:25;;;;;;;5.50;1.90;;;;;;;22.75;45.45;98605.20;106657;1271;24377;-84
2022/08/08 09:05:01;;;;;;;10.00;2.20;;;;;;;22.84;45.04;98603.59;106492;1271;22522;-85
2022/08/08 09:07:34;;;;;;;6.30;2.30;;;;;;;22.94;44.36;98608.94;106598;1271;22794;-84
2022/08/08 09:10:23;;;;;;;5.60;2.20;;;;;;;22.90;44.32;98609.03;106487;1271;22887;-85
2022/08/08 09:12:57;;;;;;;6.50;2.50;;;;;;;22.91;44.31;98602.36;106493;1271;25353;-85
2022/08/08 09:15:28;;;;;;;9.00;2.00;;;;;;;23.05;44.39;98596.55;106454;1271;23271;-84
2022/08/08 09:18:09;;;;;;;4.30;1.90;;;;;;;23.12;44.06;98592.73;106510;1271;22704;-86
2022/08/08 09:20:43;;;;;;;3.80;1.80;;;;;;;23.12;44.28;98594.01;106543;1271;24219;-85
2022/08/08 09:23:31;;;;;;;3.90;2.00;;;;;;;23.08;44.11;98597.07;106666;1271;22699;-85
2022/08/08 09:26:18;;;;;;;3.90;2.10;;;;;;;23.21;44.67;98601.71;106747;1271;22556;-83
2022/08/08 09:28:49;;;;;;;3.70;2.20;;;;;;;23.47;44.49;98597.83;106544;1271;25187;-83
2022/08/08 09:31:47;;;;;;;7.10;1.80;;;;;;;23.69;43.53;98591.37;106540;1270;22651;-84
2022/08/08 09:34:49;;;;;;;4.80;2.10;;;;;;;23.85;43.19;98595.31;106529;1271;24279;-86
2022/08/08 09:37:28;;;;;;;6.10;2.10;;;;;;;23.95;43.46;98594.92;106553;1271;22633;-83
2022/08/08 09:40:24;;;;;;;4.20;2.10;;;;;;;24.14;42.38;98593.21;106425;1271;24103;-83
2022/08/08 09:43:25;;;;;;;4.20;1.70;;;;;;;24.32;42.44;98590.55;106487;1271;25325;-84
2022/08/08 09:46:15;;;;;;;4.30;1.90;;;;;;;24.44;41.40;98592.16;106406;1271;22526;-84
2022/08/08 09:49:00;;;;;;;6.00;1.80;;;;;;;24.44;40.73;98594.36;106538;1271;22559;-84
2022/08/08 09:51:54;;;;;;;4.60;1.90;;;;;;;24.43;41.32;98599.93;105377;1271;1442227;-85
2022/08/08 09:54:42;;;;;;;5.60;1.80;;;;;;;24.54;41.17;98600.33;106381;1271;25285;-83
2022/08/08 09:57:16;;;;;;;7.70;1.90;;;;;;;24.67;41.10;98594.88;106493;1271;24094;-84
2022/08/08 09:59:51;;;;;;;3.60;1.50;;;;;;;24.74;40.66;98590.79;106561;1271;25338;-83
2022/08/08 10:02:41;;;;;;;6.90;2.00;;;;;;;24.67;41.11;98590.09;106513;1271;25415;-83
2022/08/08 10:05:18;;;;;;;7.00;2.10;;;;;;;24.59;40.48;98588.66;106460;1271;22541;-84
2022/08/08 10:07:52;;;;;;;3.40;1.60;;;;;;;24.60;40.35;98582.77;106595;1271;22565;-82
2022/08/08 10:10:35;;;;;;;4.70;1.80;;;;;;;24.65;39.40;98584.70;106489;1274;22761;-82
2022/08/08 10:13:21;;;;;;;4.10;1.80;;;;;;;24.66;38.51;98585.34;106832;1271;24203;-85
2022/08/08 10:16:02;;;;;;;4.70;1.70;;;;;;;24.69;39.53;98584.89;106920;1271;25595;-85
2022/08/08 10:18:34;;;;;;;7.10;1.70;;;;;;;24.95;39.72;98579.92;106503;1271;22560;-84
2022/08/08 10:21:06;;;;;;;3.60;1.50;;;;;;;25.20;39.53;98578.94;106647;1271;24283;-85
2022/08/08 10:24:01;;;;;;;6.70;2.10;;;;;;;25.33;39.22;98579.30;106692;1271;24262;-82
2022/08/08 10:26:43;;;;;;;5.90;2.80;;;;;;;25.31;39.01;98578.71;106634;1271;22723;-84
2022/08/08 10:29:57;;;;;;;6.50;2.60;;;;;;;25.22;39.15;98578.80;106602;1271;24209;-85
2022/08/08 10:32:34;;;;;;;5.40;2.00;;;;;;;25.19;39.65;98575.54;106554;1271;24246;-83
2022/08/08 10:35:16;;;;;;;4.70;1.70;;;;;;;25.22;39.33;98573.67;106638;1271;22529;-84
2022/08/08 10:38:08;;;;;;;4.60;2.00;;;;;;;25.27;39.65;98571.98;106504;1271;25226;-83
2022/08/08 10:40:42;;;;;;;4.40;1.90;;;;;;;25.44;39.40;98567.72;106928;1271;25388;-84
2022/08/08 10:43:10;;;;;;;4.60;1.80;;;;;;;25.45;38.97;98567.89;106656;1271;22550;-85
2022/08/08 10:45:43;;;;;;;6.90;2.60;;;;;;;25.37;38.88;98563.17;106539;1272;22610;-82
2022/08/08 10:48:33;;;;;;;5.10;2.00;;;;;;;25.32;38.98;98566.52;106659;1271;25293;-82
2022/08/08 10:51:22;;;;;;;6.30;1.80;;;;;;;25.34;38.80;98572.52;106611;1271;22870;-81
2022/08/08 10:53:54;;;;;;;6.40;1.90;;;;;;;25.30;39.00;98571.39;106615;1271;25397;-81
2022/08/08 10:56:32;;;;;;;6.30;2.40;;;;;;;25.29;38.79;98566.48;106646;1271;22630;-84
2022/08/08 10:59:09;;;;;;;4.70;2.30;;;;;;;25.28;38.83;98569.55;106612;1271;22609;-84
2022/08/08 11:01:45;;;;;;;4.40;1.90;;;;;;;25.21;38.46;98567.13;106620;1271;25177;-85
2022/08/08 11:04:22;;;;;;;4.10;1.90;;;;;;;25.13;38.56;98570.10;106555;1271;24240;-82
2022/08/08 11:07:06;;;;;;;4.80;2.40;;;;;;;25.18;38.73;98569.39;106544;1271;25350;-84
2022/08/08 11:09:48;;;;;;;5.70;1.70;;;;;;;25.17;38.38;98570.08;106593;1271;22967;-85
2022/08/08 11:12:16;;;;;;;3.90;2.40;;;;;;;25.14;38.13;98567.21;106556;1271;24242;-84
2022/08/08 11:14:58;;;;;;;5.00;1.90;;;;;;;25.15;37.99;98571.95;106644;1271;22853;-85
2022/08/08 11:17:30;;;;;;;5.20;2.60;;;;;;;25.15;38.39;98568.40;106734;1271;22543;-83
2022/08/08 11:20:21;;;;;;;6.40;1.70;;;;;;;25.25;38.26;98569.52;106983;1274;22707;-84
2022/08/08 11:23:06;;;;;;;8.80;1.90;;;;;;;25.24;38.10;98565.42;107077;1271;22691;-83
2022/08/08 11:25:38;;;;;;;4.60;2.00;;;;;;;25.15;38.25;98565.63;108097;1271;22639;-84
2022/08/08 11:28:25;;;;;;;6.60;1.90;;;;;;;25.28;38.62;98569.40;109217;1270;22681;-84
2022/08/08 11:31:00;;;;;;;4.20;1.80;;;;;;;25.42;38.09;98564.80;109281;1270;22612;-83
2022/08/08 11:33:34;;;;;;;6.60;2.10;;;;;;;25.49;38.13;98565.48;108632;1271;22557;-81
2022/08/08 11:36:23;;;;;;;3.60;1.80;;;;;;;25.49;38.26;98563.05;107229;1271;25387;-81
2022/08/08 11:38:56;;;;;;;7.30;2.00;;;;;;;25.61;38.43;98561.79;107340;1271;22547;-81
2022/08/08 11:41:27;;;;;;;6.30;1.90;;;;;;;25.71;38.27;98560.04;108511;1271;22737;-83
2022/08/08 11:44:04;;;;;;;4.80;2.00;;;;;;;25.76;38.60;98556.14;107749;1271;24403;-84
2022/08/08 11:46:35;;;;;;;5.90;1.90;;;;;;;25.81;38.08;98553.59;108818;1273;25828;-86
2022/08/08 11:49:10;;;;;;;4.50;1.90;;;;;;;25.86;38.39;98552.52;108596;1271;22685;-84
2022/08/08 11:51:45;;;;;;;6.00;2.20;;;;;;;25.76;37.76;98554.56;108340;1271;22494;-83
2022/08/08 11:54:33;;;;;;;8.70;2.10;;;;;;;25.68;38.19;98557.66;108180;1269;22590;-83
2022/08/08 11:57:25;;;;;;;5.80;2.00;;;;;;;25.66;38.06;98562.30;108227;1271;24419;-82
2022/08/08 11:59:59;;;;;;;6.00;1.90;;;;;;;25.54;37.85;98557.95;108416;1271;25872;-83
2022/08/08 12:02:48;;;;;;;3.70;1.80;;;;;;;25.42;37.70;98554.47;108124;1271;23144;-84
2022/08/08 12:05:30;;;;;;;4.40;2.10;;;;;;;25.33;37.91;98551.79;108592;1271;22533;-84
2022/08/08 12:08:02;;;;;;;8.80;2.30;;;;;;;25.42;38.15;98549.50;108161;1271;22572;-84
2022/08/08 12:11:26;;;;;;;5.60;2.00;;;;;;;25.60;38.01;98546.96;107162;1271;22703;-82
2022/08/08 12:14:03;;;;;;;8.30;2.20;;;;;;;25.74;37.68;98546.81;106637;1271;24248;-83
2022/08/08 12:16:31;;;;;;;4.30;1.80;;;;;;;25.72;37.64;98544.27;106705;1271;22528;-82
2022/08/08 12:19:15;;;;;;;5.30;2.30;;;;;;;25.73;37.78;98538.85;106603;1271;24239;-82
2022/08/08 12:22:26;;;;;;;3.30;1.80;;;;;;;25.92;37.41;98538.20;106623;1271;23029;-82
2022/08/08 12:25:04;;;;;;;4.90;2.00;;;;;;;26.06;37.41;98541.75;106541;1271;22563;-86
2022/08/08 12:27:37;;;;;;;6.90;2.00;;;;;;;26.34;37.42;98535.89;106665;1271;24125;-82
2022/08/08 12:30:12;;;;;;;5.50;1.70;;;;;;;26.75;37.51;98539.13;106525;1271;23978;-84
2022/08/08 12:32:46;;;;;;;9.00;2.00;;;;;;;27.18;37.36;98536.62;106580;1271;22851;-83
2022/08/08 12:35:20;;;;;;;4.50;1.90;;;;;;;27.46;36.82;98539.23;106575;1271;22672;-84
2022/08/08 12:38:06;;;;;;;4.70;2.30;;;;;;;27.77;36.65;98539.38;106563;1271;22756;-84
2022/08/08 12:40:52;;;;;;;4.90;2.00;;;;;;;28.03;35.99;98538.78;106601;1272;22697;-84
2022/08/08 12:43:31;;;;;;;7.30;1.90;;;;;;;28.05;35.50;98530.95;106571;1271;23267;-84
2022/08/08 12:46:23;;;;;;;3.60;1.80;;;;;;;27.84;34.87;98525.53;106520;1274;22582;-85
2022/08/08 12:48:56;;;;;;;4.50;1.90;;;;;;;27.79;35.49;98527.59;106465;1271;22773;-86
2022/08/08 12:51:49;;;;;;;6.50;1.70;;;;;;;27.87;35.48;98528.16;106539;1271;24413;-84